createdAt,value
2018-05-01T00:01:50.057Z,17.00
2018-05-01T00:04:17.682Z,17.00
2018-05-01T00:06:46.099Z,17.00
2018-05-01T00:09:13.761Z,17.00
2018-05-01T00:11:41.406Z,17.00
2018-05-01T00:14:09.932Z,17.10
2018-05-01T00:16:37.769Z,17.10
2018-05-01T00:19:05.496Z,17.10
2018-05-01T00:21:33.983Z,17.10
2018-05-01T00:24:02.424Z,17.00
2018-05-01T00:26:30.034Z,17.00
2018-05-01T00:28:58.489Z,17.00
2018-05-01T00:31:26.081Z,17.00
2018-05-01T00:33:55.569Z,17.00
2018-05-01T00:36:23.945Z,16.90
2018-05-01T00:38:53.950Z,16.80
2018-05-01T00:41:21.594Z,16.80
2018-05-01T00:43:49.234Z,16.80
2018-05-01T00:46:16.844Z,16.70
2018-05-01T00:48:44.490Z,16.70
2018-05-01T00:51:12.153Z,16.50
2018-05-01T00:53:39.806Z,16.60
2018-05-01T00:56:07.435Z,16.70
2018-05-01T00:58:35.091Z,16.80
2018-05-01T01:01:02.769Z,16.90
2018-05-01T01:03:30.515Z,16.90
2018-05-01T01:05:58.245Z,16.90
2018-05-01T01:08:26.726Z,16.90
2018-05-01T01:10:55.256Z,16.90
2018-05-01T01:13:22.934Z,16.90
2018-05-01T01:15:50.679Z,16.90
2018-05-01T01:18:18.457Z,16.80
2018-05-01T01:20:46.248Z,16.70
2018-05-01T01:23:14.683Z,16.60
2018-05-01T01:25:42.338Z,16.60
2018-05-01T01:28:10.030Z,16.50
2018-05-01T01:30:37.723Z,16.30
2018-05-01T01:33:06.219Z,16.20
2018-05-01T01:35:33.449Z,16.20
2018-05-01T01:38:01.455Z,16.30
2018-05-01T01:40:30.571Z,16.30
2018-05-01T01:42:57.793Z,16.30
2018-05-01T01:45:25.002Z,16.20
2018-05-01T01:47:52.131Z,16.20
2018-05-01T01:50:20.964Z,16.20
2018-05-01T01:52:48.928Z,16.30
2018-05-01T01:55:16.879Z,16.40
2018-05-01T01:57:44.039Z,16.40
2018-05-01T02:00:11.167Z,16.60
2018-05-01T02:02:38.322Z,16.70
2018-05-01T02:05:05.556Z,16.80
2018-05-01T02:07:32.655Z,16.80
2018-05-01T02:10:01.177Z,16.80
2018-05-01T02:12:28.314Z,16.80
2018-05-01T02:14:55.461Z,16.80
2018-05-01T02:17:22.570Z,16.60
2018-05-01T02:19:49.730Z,16.40
2018-05-01T02:22:16.855Z,16.30
2018-05-01T02:24:44.011Z,16.10
2018-05-01T02:27:11.130Z,16.00
2018-05-01T02:29:38.318Z,15.90
2018-05-01T02:32:05.482Z,15.80
2018-05-01T02:34:32.617Z,15.80
2018-05-01T02:36:59.769Z,15.80
2018-05-01T02:39:26.952Z,15.80
2018-05-01T02:41:54.831Z,15.70
2018-05-01T02:44:21.986Z,15.70
2018-05-01T02:46:49.153Z,15.60
2018-05-01T02:49:16.270Z,15.40
2018-05-01T02:51:43.387Z,15.20
2018-05-01T02:54:11.350Z,15.00
2018-05-01T02:56:38.572Z,14.70
2018-05-01T02:59:05.720Z,14.50
2018-05-01T03:01:32.829Z,14.30
2018-05-01T03:04:00.757Z,14.10
2018-05-01T03:06:27.905Z,14.10
2018-05-01T03:08:55.098Z,14.00
2018-05-01T03:11:22.359Z,13.90
2018-05-01T03:13:59.069Z,13.70
2018-05-01T03:18:59.580Z,13.50
2018-05-01T03:21:27.478Z,13.10
2018-05-01T03:23:54.582Z,13.10
2018-05-01T03:26:22.497Z,13.00
2018-05-01T03:28:49.631Z,12.90
2018-05-01T03:31:16.734Z,12.90
2018-05-01T03:33:43.874Z,13.00
2018-05-01T03:36:10.977Z,12.90
2018-05-01T03:38:38.106Z,12.80
2018-05-01T03:41:06.016Z,12.80
2018-05-01T03:43:33.114Z,12.80
2018-05-01T03:46:01.013Z,12.90
2018-05-01T03:48:28.105Z,12.80
2018-05-01T03:50:55.244Z,12.70
2018-05-01T03:53:22.345Z,12.70
2018-05-01T03:55:49.534Z,12.70
2018-05-01T03:58:16.641Z,12.80
2018-05-01T04:00:43.742Z,12.80
2018-05-01T04:03:10.885Z,12.70
2018-05-01T04:05:38.021Z,12.70
2018-05-01T04:08:05.127Z,12.70
2018-05-01T04:10:33.051Z,12.60
2018-05-01T04:13:00.185Z,12.60
2018-05-01T04:15:27.277Z,12.60
2018-05-01T04:17:54.433Z,12.60
2018-05-01T04:20:22.293Z,12.40
2018-05-01T04:22:49.428Z,12.40
2018-05-01T04:25:16.567Z,12.40
2018-05-01T04:27:43.660Z,12.40
2018-05-01T04:30:11.565Z,12.30
2018-05-01T04:32:38.656Z,12.30
2018-05-01T04:35:05.788Z,12.20
2018-05-01T04:37:32.885Z,12.30
2018-05-01T04:40:00.021Z,12.30
2018-05-01T04:42:27.927Z,12.50
2018-05-01T04:44:55.018Z,12.50
2018-05-01T04:47:22.158Z,12.40
2018-05-01T04:49:49.257Z,12.50
2018-05-01T04:52:16.399Z,12.60
2018-05-01T04:54:43.503Z,12.60
2018-05-01T04:57:10.644Z,12.70
2018-05-01T04:59:37.783Z,12.80
2018-05-01T05:02:05.781Z,12.80
2018-05-01T05:04:32.916Z,12.90
2018-05-01T05:07:00.061Z,12.80
2018-05-01T05:09:27.225Z,13.00
2018-05-01T05:11:54.326Z,13.10
2018-05-01T05:14:21.472Z,13.20
2018-05-01T05:16:48.564Z,13.30
2018-05-01T05:19:15.705Z,13.50
2018-05-01T05:21:42.854Z,13.60
2018-05-01T05:24:09.997Z,13.70
2018-05-01T05:26:37.978Z,13.80
2018-05-01T05:29:05.133Z,13.90
2018-05-01T05:31:32.244Z,13.80
2018-05-01T05:33:59.381Z,13.90
2018-05-01T05:36:26.518Z,13.90
2018-05-01T05:38:53.621Z,13.90
2018-05-01T05:41:21.524Z,14.30
2018-05-01T05:43:49.391Z,14.50
2018-05-01T05:46:17.301Z,14.70
2018-05-01T05:48:44.427Z,14.70
2018-05-01T05:51:11.560Z,14.90
2018-05-01T05:53:39.541Z,15.40
2018-05-01T05:56:06.641Z,15.30
2018-05-01T05:58:33.734Z,15.50
2018-05-01T06:01:00.950Z,15.60
2018-05-01T06:03:28.037Z,15.70
2018-05-01T06:05:55.142Z,15.70
2018-05-01T06:08:22.289Z,15.70
2018-05-01T06:10:49.399Z,15.80
2018-05-01T06:13:16.551Z,15.80
2018-05-01T06:15:43.804Z,15.90
2018-05-01T06:18:10.945Z,15.90
2018-05-01T06:20:38.045Z,16.00
2018-05-01T06:23:05.185Z,16.10
2018-05-01T06:25:32.289Z,16.10
2018-05-01T06:27:59.421Z,16.10
2018-05-01T06:30:27.289Z,16.50
2018-05-01T06:32:55.194Z,16.60
2018-05-01T06:35:22.309Z,16.60
2018-05-01T06:37:49.454Z,16.80
2018-05-01T06:40:17.381Z,17.30
2018-05-01T06:42:45.126Z,17.30
2018-05-01T06:45:12.246Z,17.50
2018-05-01T06:47:39.507Z,17.60
2018-05-01T06:50:06.609Z,17.80
2018-05-01T06:52:33.758Z,17.90
2018-05-01T06:55:00.985Z,18.00
2018-05-01T06:57:28.166Z,18.00
2018-05-01T06:59:56.082Z,18.10
2018-05-01T07:02:23.186Z,18.10
2018-05-01T07:04:51.101Z,18.30
2018-05-01T07:07:18.201Z,18.30
2018-05-01T07:09:45.341Z,18.40
2018-05-01T07:12:12.444Z,18.50
2018-05-01T07:14:39.611Z,18.50
2018-05-01T07:17:06.720Z,18.50
2018-05-01T07:19:33.866Z,18.60
2018-05-01T07:22:01.797Z,18.80
2018-05-01T07:24:28.945Z,18.70
2018-05-01T07:26:56.077Z,18.80
2018-05-01T07:29:23.221Z,18.80
2018-05-01T07:31:50.352Z,18.90
2018-05-01T07:34:17.500Z,18.90
2018-05-01T07:36:44.597Z,19.00
2018-05-01T07:39:11.740Z,18.90
2018-05-01T07:41:38.968Z,18.90
2018-05-01T07:44:06.054Z,19.00
2018-05-01T07:46:33.194Z,19.00
2018-05-01T07:49:00.380Z,19.00
2018-05-01T07:51:28.240Z,19.00
2018-05-01T07:53:56.106Z,19.00
2018-05-01T07:56:24.021Z,19.00
2018-05-01T07:58:51.118Z,19.00
2018-05-01T08:01:19.021Z,19.10
2018-05-01T08:03:46.117Z,19.10
2018-05-01T08:06:13.281Z,19.10
2018-05-01T08:08:41.196Z,19.10
2018-05-01T08:11:08.298Z,19.10
2018-05-01T08:13:36.220Z,19.20
2018-05-01T08:16:03.341Z,19.10
2018-05-01T08:18:30.446Z,19.30
2018-05-01T08:20:57.591Z,19.30
2018-05-01T08:23:24.698Z,19.20
2018-05-01T08:25:51.848Z,19.30
2018-05-01T08:28:18.964Z,19.40
2018-05-01T08:30:46.880Z,19.50
2018-05-01T08:33:14.044Z,19.50
2018-05-01T08:35:41.207Z,19.50
2018-05-01T08:38:09.117Z,19.50
2018-05-01T08:40:36.265Z,19.50
2018-05-01T08:43:03.411Z,19.70
2018-05-01T08:45:31.317Z,19.90
2018-05-01T08:47:58.409Z,19.90
2018-05-01T08:50:26.316Z,20.00
2018-05-01T08:52:53.686Z,20.00
2018-05-01T08:55:21.173Z,20.10
2018-05-01T08:57:48.292Z,20.20
2018-05-01T09:00:15.454Z,20.30
2018-05-01T09:02:42.572Z,20.30
2018-05-01T09:05:09.714Z,20.40
2018-05-01T09:07:36.841Z,20.50
2018-05-01T09:10:04.762Z,20.60
2018-05-01T09:12:31.877Z,20.50
2018-05-01T09:14:58.992Z,20.60
2018-05-01T09:17:26.147Z,20.60
2018-05-01T09:19:54.073Z,20.70
2018-05-01T09:22:21.181Z,20.70
2018-05-01T09:24:49.101Z,20.90
2018-05-01T09:27:16.253Z,20.80
2018-05-01T09:29:43.369Z,20.90
2018-05-01T09:32:10.525Z,21.00
2018-05-01T09:34:37.690Z,21.00
2018-05-01T09:37:04.835Z,21.10
2018-05-01T09:39:31.994Z,21.00
2018-05-01T09:41:59.968Z,20.60
2018-05-01T09:44:27.819Z,20.60
2018-05-01T09:46:54.929Z,20.60
2018-05-01T09:49:22.809Z,20.80
2018-05-01T09:51:49.967Z,20.80
2018-05-01T09:54:17.570Z,20.90
2018-05-01T09:56:45.227Z,21.00
2018-05-01T09:59:12.837Z,20.90
2018-05-01T10:01:40.522Z,21.10
2018-05-01T10:04:08.907Z,21.20
2018-05-01T10:06:36.552Z,21.20
2018-05-01T10:09:04.215Z,21.30
2018-05-01T10:11:31.888Z,21.40
2018-05-01T10:14:00.272Z,21.30
2018-05-01T10:16:27.911Z,21.30
2018-05-01T10:18:56.122Z,21.10
2018-05-01T10:21:25.512Z,21.10
2018-05-01T10:23:53.178Z,21.00
2018-05-01T10:26:20.866Z,21.00
2018-05-01T10:28:48.616Z,21.10
2018-05-01T10:31:16.232Z,21.10
2018-05-01T10:33:43.902Z,21.20
2018-05-01T10:36:11.546Z,21.30
2018-05-01T10:38:40.960Z,21.10
2018-05-01T10:41:10.967Z,21.10
2018-05-01T10:43:39.446Z,21.10
2018-05-01T10:46:07.859Z,21.30
2018-05-01T10:48:35.595Z,21.30
2018-05-01T10:51:03.168Z,21.50
2018-05-01T10:53:30.926Z,21.50
2018-05-01T10:55:58.526Z,21.60
2018-05-01T10:58:26.170Z,21.60
2018-05-01T11:00:54.249Z,21.70
2018-05-01T11:03:21.911Z,21.50
2018-05-01T11:05:49.713Z,21.70
2018-05-01T11:08:17.415Z,21.70
2018-05-01T11:10:45.022Z,21.80
2018-05-01T11:13:12.633Z,21.80
2018-05-01T11:15:40.291Z,21.90
2018-05-01T11:18:09.759Z,21.80
2018-05-01T11:20:37.402Z,21.80
2018-05-01T11:23:05.028Z,22.00
2018-05-01T11:25:32.677Z,22.10
2018-05-01T11:28:00.328Z,22.20
2018-05-01T11:30:28.721Z,22.00
2018-05-01T11:32:56.367Z,22.00
2018-05-01T11:35:24.733Z,22.20
2018-05-01T11:37:53.175Z,22.30
2018-05-01T11:40:20.902Z,22.20
2018-05-01T11:42:48.570Z,22.10
2018-05-01T11:45:16.215Z,22.20
2018-05-01T11:47:43.876Z,22.40
2018-05-01T11:50:12.245Z,22.70
2018-05-01T11:52:40.661Z,22.80
2018-05-01T11:55:08.307Z,22.80
2018-05-01T11:57:35.954Z,22.90
2018-05-01T12:00:03.598Z,22.90
2018-05-01T12:02:31.349Z,23.10
2018-05-01T12:04:58.922Z,23.30
2018-05-01T12:07:26.577Z,23.40
2018-05-01T12:09:55.000Z,23.50
2018-05-01T12:12:22.722Z,23.50
2018-05-01T12:14:51.142Z,23.30
2018-05-01T12:17:18.753Z,23.30
2018-05-01T12:19:46.386Z,23.40
2018-05-01T12:22:13.991Z,23.50
2018-05-01T12:24:42.460Z,23.50
2018-05-01T12:27:10.066Z,23.50
2018-05-01T12:29:37.728Z,23.50
2018-05-01T12:32:05.374Z,23.50
2018-05-01T12:34:33.017Z,23.30
2018-05-01T12:37:01.506Z,23.10
2018-05-01T12:39:29.114Z,23.00
2018-05-01T12:41:56.764Z,23.10
2018-05-01T12:44:24.446Z,23.00
2018-05-01T12:46:52.143Z,23.10
2018-05-01T12:49:20.522Z,23.10
2018-05-01T12:51:48.987Z,23.10
2018-05-01T12:54:16.653Z,23.10
2018-05-01T12:56:44.257Z,23.30
2018-05-01T12:59:11.924Z,23.00
2018-05-01T13:01:39.546Z,23.10
2018-05-01T13:04:08.059Z,23.20
2018-05-01T13:06:35.697Z,23.10
2018-05-01T13:09:03.461Z,23.40
2018-05-01T13:11:32.754Z,24.10
2018-05-01T13:14:02.186Z,24.30
2018-05-01T13:16:31.648Z,24.20
2018-05-01T13:18:59.414Z,24.20
2018-05-01T13:21:27.010Z,24.30
2018-05-01T13:23:54.614Z,24.30
2018-05-01T13:26:22.267Z,24.30
2018-05-01T13:28:49.881Z,24.30
2018-05-01T13:31:18.307Z,24.70
2018-05-01T13:33:45.964Z,24.60
2018-05-01T13:36:13.614Z,24.80
2018-05-01T13:38:42.188Z,24.80
2018-05-01T13:41:09.869Z,24.60
2018-05-01T13:43:38.341Z,24.50
2018-05-01T13:46:07.295Z,24.40
2018-05-01T13:48:36.937Z,24.60
2018-05-01T13:51:04.730Z,24.60
2018-05-01T13:53:32.382Z,24.80
2018-05-01T13:55:59.994Z,25.00
2018-05-01T13:58:28.672Z,25.10
2018-05-01T14:00:56.434Z,25.10
2018-05-01T14:03:24.812Z,25.00
2018-05-01T14:05:53.389Z,25.10
2018-05-01T14:08:21.100Z,25.10
2018-05-01T14:10:48.761Z,25.20
2018-05-01T14:13:16.632Z,25.30
2018-05-01T14:15:44.238Z,25.50
2018-05-01T14:18:11.854Z,25.50
2018-05-01T14:20:39.899Z,25.50
2018-05-01T14:23:07.611Z,25.50
2018-05-01T14:25:36.120Z,25.30
2018-05-01T14:28:04.874Z,25.30
2018-05-01T14:30:32.564Z,25.10
2018-05-01T14:33:00.187Z,25.00
2018-05-01T14:35:27.972Z,24.90
2018-05-01T14:37:55.739Z,24.80
2018-05-01T14:40:23.454Z,24.70
2018-05-01T14:42:51.388Z,24.70
2018-05-01T14:45:19.107Z,24.60
2018-05-01T14:47:46.711Z,24.60
2018-05-01T14:50:14.509Z,24.50
2018-05-01T14:52:42.483Z,24.30
2018-05-01T14:55:10.137Z,24.10
2018-05-01T14:57:37.786Z,24.00
2018-05-01T15:00:06.244Z,23.90
2018-05-01T15:02:34.845Z,23.90
2018-05-01T15:05:03.231Z,23.80
2018-05-01T15:07:31.958Z,23.80
2018-05-01T15:09:59.595Z,23.70
2018-05-01T15:12:27.214Z,23.70
2018-05-01T15:14:54.992Z,23.70
2018-05-01T15:17:22.827Z,23.70
2018-05-01T15:19:50.487Z,23.70
2018-05-01T15:22:18.188Z,23.50
2018-05-01T15:24:46.127Z,23.50
2018-05-01T15:27:13.975Z,23.50
2018-05-01T15:29:42.463Z,23.80
2018-05-01T15:32:10.237Z,23.80
2018-05-01T15:34:37.891Z,23.90
2018-05-01T15:37:05.538Z,24.00
2018-05-01T15:39:33.386Z,24.00
2018-05-01T15:42:01.054Z,23.90
2018-05-01T15:44:28.666Z,23.70
2018-05-01T15:46:56.540Z,23.60
2018-05-01T15:49:24.933Z,23.50
2018-05-01T15:51:53.011Z,23.50
2018-05-01T15:54:20.689Z,23.40
2018-05-01T15:56:48.391Z,23.40
2018-05-01T15:59:16.041Z,23.30
2018-05-01T16:01:43.723Z,23.10
2018-05-01T16:04:11.403Z,23.10
2018-05-01T16:06:39.866Z,22.80
2018-05-01T16:09:07.502Z,22.80
2018-05-01T16:11:35.229Z,22.70
2018-05-01T16:14:02.956Z,22.60
2018-05-01T16:16:30.525Z,22.60
2018-05-01T16:18:58.295Z,22.60
2018-05-01T16:21:26.729Z,22.40
2018-05-01T16:23:54.337Z,22.40
2018-05-01T16:26:22.018Z,22.40
2018-05-01T16:28:49.622Z,22.30
2018-05-01T16:31:17.375Z,22.20
2018-05-01T16:33:45.289Z,22.10
2018-05-01T16:36:13.766Z,22.10
2018-05-01T16:38:42.560Z,22.00
2018-05-01T16:41:10.354Z,22.00
2018-05-01T16:43:38.923Z,21.90
2018-05-01T16:46:07.655Z,21.70
2018-05-01T16:48:35.312Z,21.60
2018-05-01T16:51:03.282Z,21.60
2018-05-01T16:53:31.773Z,21.50
2018-05-01T16:55:59.549Z,21.50
2018-05-01T16:58:27.452Z,21.50
2018-05-01T17:00:55.063Z,21.40
2018-05-01T17:03:22.799Z,21.40
2018-05-01T17:05:50.442Z,21.30
2018-05-01T17:08:18.102Z,21.20
2018-05-01T17:10:45.878Z,21.10
2018-05-01T17:13:14.198Z,21.10
2018-05-01T17:15:41.893Z,21.00
2018-05-01T17:18:10.268Z,20.90
2018-05-01T17:20:39.048Z,20.90
2018-05-01T17:23:06.699Z,20.80
2018-05-01T17:25:34.314Z,20.80
2018-05-01T17:28:02.389Z,20.80
2018-05-01T17:30:30.112Z,20.70
2018-05-01T17:32:57.857Z,20.60
2018-05-01T17:35:25.563Z,20.60
2018-05-01T17:37:53.456Z,20.60
2018-05-01T17:40:21.240Z,20.50
2018-05-01T17:42:48.846Z,20.40
2018-05-01T17:45:16.856Z,20.40
2018-05-01T17:47:44.532Z,20.30
2018-05-01T17:50:12.210Z,20.30
2018-05-01T17:52:40.260Z,20.20
2018-05-01T17:55:07.968Z,20.20
2018-05-01T17:57:36.399Z,20.20
2018-05-01T18:00:04.166Z,20.20
2018-05-01T18:02:31.849Z,20.20
2018-05-01T18:04:59.461Z,20.10
2018-05-01T18:07:27.184Z,20.10
2018-05-01T18:09:54.866Z,20.00
2018-05-01T18:12:23.229Z,19.90
2018-05-01T18:14:51.646Z,19.90
2018-05-01T18:17:19.353Z,19.90
2018-05-01T18:19:47.174Z,19.90
2018-05-01T18:22:14.899Z,19.80
2018-05-01T18:24:43.308Z,19.60
2018-05-01T18:27:11.085Z,19.60
2018-05-01T18:29:38.781Z,19.60
2018-05-01T18:32:07.642Z,19.50
2018-05-01T18:34:35.401Z,19.50
2018-05-01T18:37:03.012Z,19.50
2018-05-01T18:39:30.650Z,19.40
2018-05-01T18:41:58.303Z,19.30
2018-05-01T18:44:25.985Z,19.30
2018-05-01T18:46:53.573Z,19.20
2018-05-01T18:49:22.014Z,19.20
2018-05-01T18:51:50.391Z,19.20
2018-05-01T18:54:18.010Z,19.10
2018-05-01T18:56:46.164Z,19.10
2018-05-01T18:59:13.828Z,19.10
2018-05-01T19:01:42.245Z,19.00
2018-05-01T19:04:10.009Z,19.00
2018-05-01T19:06:37.645Z,19.00
2018-05-01T19:09:06.055Z,19.00
2018-05-01T19:11:34.044Z,19.00
2018-05-01T19:14:02.541Z,19.00
2018-05-01T19:16:30.175Z,19.00
2018-05-01T19:18:57.821Z,18.90
2018-05-01T19:21:25.450Z,18.90
2018-05-01T19:23:53.907Z,18.90
2018-05-01T19:26:22.304Z,18.80
2018-05-01T19:28:50.727Z,18.70
2018-05-01T19:31:18.368Z,18.70
2018-05-01T19:33:46.032Z,18.60
2018-05-01T19:36:13.817Z,18.60
2018-05-01T19:38:41.448Z,18.50
2018-05-01T19:41:09.095Z,18.50
2018-05-01T19:43:37.549Z,18.40
2018-05-01T19:46:05.296Z,18.40
2018-05-01T19:48:33.018Z,18.40
2018-05-01T19:51:00.739Z,18.30
2018-05-01T19:53:28.445Z,18.30
2018-05-01T19:55:56.253Z,18.20
2018-05-01T19:58:24.047Z,18.20
2018-05-01T20:00:52.482Z,18.20
2018-05-01T20:03:20.374Z,18.10
2018-05-01T20:05:47.967Z,18.10
2018-05-01T20:08:16.611Z,18.00
2018-05-01T20:10:44.250Z,18.10
2018-05-01T20:13:11.890Z,18.00
2018-05-01T20:15:39.518Z,18.00
2018-05-01T20:18:07.157Z,17.90
2018-05-01T20:20:34.948Z,17.90
2018-05-01T20:23:02.614Z,17.80
2018-05-01T20:25:31.002Z,17.70
2018-05-01T20:27:59.419Z,17.60
2018-05-01T20:30:27.169Z,17.60
2018-05-01T20:32:55.075Z,17.60
2018-05-01T20:35:22.810Z,17.50
2018-05-01T20:37:50.459Z,17.50
2018-05-01T20:40:18.094Z,17.40
2018-05-01T20:42:46.526Z,17.30
2018-05-01T20:45:14.178Z,17.30
2018-05-01T20:47:41.955Z,17.30
2018-05-01T20:50:09.882Z,17.30
2018-05-01T20:52:37.691Z,17.20
2018-05-01T20:55:05.505Z,17.20
2018-05-01T20:57:33.177Z,17.10
2018-05-01T21:00:01.533Z,17.00
2018-05-01T21:02:29.946Z,17.00
2018-05-01T21:04:57.542Z,17.00
2018-05-01T21:07:25.197Z,17.10
2018-05-01T21:09:52.803Z,17.00
2018-05-01T21:12:21.202Z,16.80
2018-05-01T21:14:48.806Z,16.80
2018-05-01T21:17:17.188Z,16.80
2018-05-01T21:19:44.821Z,16.70
2018-05-01T21:22:12.445Z,16.70
2018-05-01T21:24:40.848Z,16.50
2018-05-01T21:27:08.515Z,16.50
2018-05-01T21:29:36.110Z,16.60
2018-05-01T21:32:03.738Z,16.50
2018-05-01T21:34:31.368Z,16.50
2018-05-01T21:36:59.763Z,16.40
2018-05-01T21:39:27.397Z,16.40
2018-05-01T21:41:55.038Z,16.40
2018-05-01T21:44:22.695Z,16.40
2018-05-01T21:46:50.298Z,16.50
2018-05-01T21:49:18.666Z,16.30
2018-05-01T21:51:47.076Z,16.10
2018-05-01T21:54:14.683Z,16.10
2018-05-01T21:56:43.105Z,16.00
2018-05-01T21:59:10.706Z,16.00
2018-05-01T22:01:38.341Z,15.90
2018-05-01T22:04:05.981Z,15.80
2018-05-01T22:06:34.389Z,15.60
2018-05-01T22:09:02.022Z,15.60
2018-05-01T22:11:29.686Z,15.60
2018-05-01T22:13:57.290Z,15.60
2018-05-01T22:16:24.934Z,15.60
2018-05-01T22:18:52.530Z,15.50
2018-05-01T22:21:20.184Z,15.40
2018-05-01T22:23:47.789Z,15.40
2018-05-01T22:26:15.430Z,15.40
2018-05-01T22:28:43.820Z,15.30
2018-05-01T22:31:12.232Z,15.40
2018-05-01T22:33:39.838Z,15.40
2018-05-01T22:36:07.471Z,15.40
2018-05-01T22:38:35.153Z,15.30
2018-05-01T22:41:02.798Z,15.20
2018-05-01T22:43:30.417Z,15.10
2018-05-01T22:45:58.055Z,15.10
2018-05-01T22:48:26.463Z,15.00
2018-05-01T22:50:54.082Z,15.10
2018-05-01T22:53:21.686Z,15.20
2018-05-01T22:55:49.350Z,15.10
2018-05-01T22:58:16.957Z,15.00
2018-05-01T23:00:44.583Z,14.90
2018-05-01T23:03:12.226Z,14.80
2018-05-01T23:05:39.894Z,14.80
2018-05-01T23:08:07.591Z,14.80
2018-05-01T23:10:35.206Z,14.80
2018-05-01T23:13:02.848Z,14.90
2018-05-01T23:15:31.212Z,14.90
2018-05-01T23:17:58.928Z,14.90
2018-05-01T23:20:26.530Z,14.90
2018-05-01T23:22:54.180Z,14.90
2018-05-01T23:25:21.861Z,14.80
2018-05-01T23:27:49.462Z,14.80
2018-05-01T23:30:17.113Z,14.80
2018-05-01T23:32:44.730Z,14.70
2018-05-01T23:35:13.170Z,14.70
2018-05-01T23:37:40.833Z,14.60
2018-05-01T23:40:08.433Z,14.60
2018-05-01T23:42:36.028Z,14.60
2018-05-01T23:45:04.446Z,14.50
2018-05-01T23:47:32.135Z,14.50
2018-05-01T23:49:59.745Z,14.50
2018-05-01T23:52:27.387Z,14.50
2018-05-01T23:54:55.787Z,14.50
2018-05-01T23:57:23.438Z,14.50
2018-05-01T23:59:51.043Z,14.50
